VOZ456 YPAD-YPPH
Flight info
| Callsign | VOZ456 |
|---|---|
| Flight time | N/A |
| Altitude | 36000 |
| Route | GILES Q33 ESP Q158 HAMTN |
| Aircraft | B738/M-SDE2E3FGHIRWXY/LB1 |
Departure
| Time | 2025-09-09 09:48 |
|---|---|
| Airport | Adelaide International Airport (YPAD) |
Arrival
| Time | N/A |
|---|---|
| Airport | Perth International Airport (YPPH) |
| Time | Latitude | Longitude | Altitude | Speed | Heading |
|---|---|---|---|---|---|
| 2025-09-09 09:26 | -34.93856 | 138.53958 | 26 ft | 0 kts | 320° |
| 2025-09-09 09:41 | -34.93861 | 138.53963 | 26 ft | 2 kts | 319° |
| 2025-09-09 09:41 | -34.93872 | 138.53975 | 27 ft | 2 kts | 323° |
| 2025-09-09 09:42 | -34.93896 | 138.53996 | 43 ft | 2 kts | 332° |
| 2025-09-09 09:42 | -34.93926 | 138.54011 | 31 ft | 2 kts | 14° |
| 2025-09-09 09:43 | -34.93934 | 138.54005 | 30 ft | 0 kts | 46° |
| 2025-09-09 09:44 | -34.93928 | 138.54014 | 31 ft | 4 kts | 49° |
| 2025-09-09 09:45 | -34.93880 | 138.54085 | 28 ft | 5 kts | 54° |
| 2025-09-09 09:45 | -34.93905 | 138.54157 | 26 ft | 5 kts | 144° |
| 2025-09-09 09:46 | -34.94032 | 138.54277 | 27 ft | 18 kts | 141° |
| 2025-09-09 09:46 | -34.94124 | 138.54207 | 27 ft | 24 kts | 231° |
| 2025-09-09 09:46 | -34.94380 | 138.53857 | 26 ft | 99 kts | 230° |
| 2025-09-09 09:47 | -34.96908 | 138.50433 | 1384 ft | 223 kts | 220° |
| 2025-09-09 09:47 | -34.98204 | 138.49412 | 2456 ft | 229 kts | 212° |
| 2025-09-09 09:48 | -35.01107 | 138.44404 | 5017 ft | 249 kts | 237° |
| 2025-09-09 09:49 | -35.03233 | 138.41047 | 6823 ft | 252 kts | 237° |
| 2025-09-09 09:49 | -35.04003 | 138.37051 | 8404 ft | 249 kts | 282° |
| 2025-09-09 09:49 | -35.03364 | 138.35095 | 9277 ft | 251 kts | 301° |
| 2025-09-09 09:50 | -35.00765 | 138.32066 | 10502 ft | 276 kts | 317° |
| 2025-09-09 09:50 | -34.97794 | 138.28603 | 11059 ft | 310 kts | 298° |
| 2025-09-09 09:51 | -34.96993 | 138.23497 | 12526 ft | 318 kts | 268° |
| 2025-09-09 09:52 | -34.97709 | 138.15330 | 14716 ft | 326 kts | 267° |
| 2025-09-09 09:52 | -34.98176 | 138.09538 | 15091 ft | 360 kts | 267° |
| 2025-09-09 09:53 | -34.98667 | 138.03346 | 16073 ft | 370 kts | 267° |
| 2025-09-09 09:53 | -34.99156 | 137.97073 | 17284 ft | 374 kts | 267° |
| 2025-09-09 09:54 | -34.99653 | 137.90744 | 18442 ft | 378 kts | 267° |
| 2025-09-09 09:54 | -35.00400 | 137.81096 | 19891 ft | 384 kts | 268° |
| 2025-09-09 09:55 | -35.00899 | 137.74573 | 20801 ft | 388 kts | 268° |
| 2025-09-09 09:56 | -35.01646 | 137.64703 | 22124 ft | 394 kts | 268° |
| 2025-09-09 09:56 | -35.02149 | 137.58009 | 22905 ft | 399 kts | 268° |
| 2025-09-09 09:57 | -35.02653 | 137.51253 | 23704 ft | 402 kts | 268° |
| 2025-09-09 09:57 | -35.03157 | 137.44442 | 24345 ft | 404 kts | 268° |
| 2025-09-09 09:58 | -35.03661 | 137.37596 | 24991 ft | 406 kts | 268° |
| 2025-09-09 09:59 | -35.04665 | 137.23758 | 26160 ft | 411 kts | 269° |
| 2025-09-09 10:01 | -35.06763 | 136.94180 | 29763 ft | 395 kts | 269° |
| 2025-09-09 10:03 | -35.08344 | 136.71092 | 32003 ft | 388 kts | 270° |
| 2025-09-09 10:05 | -35.10286 | 136.41859 | 34441 ft | 383 kts | 271° |
| 2025-09-09 10:07 | -35.11747 | 136.19094 | 35668 ft | 386 kts | 271° |
| 2025-09-09 10:09 | -35.13381 | 135.92876 | 36044 ft | 384 kts | 271° |
| 2025-09-09 10:11 | -35.14938 | 135.66902 | 36056 ft | 386 kts | 271° |
| 2025-09-09 10:13 | -35.16474 | 135.40362 | 36051 ft | 395 kts | 271° |
| 2025-09-09 10:15 | -35.17975 | 135.13415 | 36054 ft | 398 kts | 271° |
| 2025-09-09 10:17 | -35.18394 | 134.86449 | 36059 ft | 397 kts | 275° |
| 2025-09-09 10:18 | -35.17752 | 134.62771 | 36064 ft | 399 kts | 275° |
| 2025-09-09 10:21 | -35.16890 | 134.32170 | 36065 ft | 403 kts | 275° |
| 2025-09-09 10:23 | -35.16050 | 134.04717 | 36072 ft | 405 kts | 275° |
| 2025-09-09 10:25 | -35.15144 | 133.77133 | 36075 ft | 408 kts | 275° |
| 2025-09-09 10:27 | -35.14167 | 133.49307 | 36080 ft | 411 kts | 275° |
| 2025-09-09 10:29 | -35.13122 | 133.21374 | 36080 ft | 413 kts | 275° |
| 2025-09-09 10:31 | -35.11997 | 132.93101 | 36096 ft | 429 kts | 272° |
| 2025-09-09 10:33 | -35.10736 | 132.63153 | 36084 ft | 447 kts | 272° |
| 2025-09-09 10:35 | -35.09399 | 132.33183 | 36086 ft | 436 kts | 272° |
| 2025-09-09 10:37 | -35.07998 | 132.03431 | 36084 ft | 440 kts | 272° |
| 2025-09-09 10:38 | -35.06727 | 131.77524 | 36096 ft | 435 kts | 272° |
| 2025-09-09 10:41 | -35.04802 | 131.44199 | 36121 ft | 442 kts | 275° |
| 2025-09-09 10:42 | -35.02061 | 131.18179 | 36131 ft | 442 kts | 275° |
| 2025-09-09 10:45 | -34.98580 | 130.84821 | 36150 ft | 438 kts | 275° |
| 2025-09-09 10:46 | -34.95836 | 130.59073 | 36172 ft | 438 kts | 275° |
| 2025-09-09 10:49 | -34.92221 | 130.26098 | 36189 ft | 437 kts | 275° |
| 2025-09-09 10:50 | -34.89494 | 130.01704 | 36208 ft | 435 kts | 275° |
| 2025-09-09 10:53 | -34.85728 | 129.68747 | 36221 ft | 439 kts | 275° |
| 2025-09-09 10:54 | -34.82724 | 129.43012 | 36235 ft | 438 kts | 275° |
| 2025-09-09 10:57 | -34.78802 | 129.10132 | 36252 ft | 435 kts | 275° |
| 2025-09-09 10:58 | -34.75710 | 128.84724 | 36265 ft | 433 kts | 275° |
| 2025-09-09 11:01 | -34.71223 | 128.48642 | 36278 ft | 431 kts | 276° |
| 2025-09-09 11:02 | -34.68487 | 128.27066 | 36284 ft | 430 kts | 276° |
| 2025-09-09 11:05 | -34.64326 | 127.94828 | 36295 ft | 429 kts | 276° |
| 2025-09-09 11:06 | -34.61034 | 127.69766 | 36303 ft | 429 kts | 276° |
| 2025-09-09 11:09 | -34.56735 | 127.37618 | 36315 ft | 428 kts | 276° |
| 2025-09-09 11:11 | -34.52856 | 127.09166 | 36323 ft | 427 kts | 276° |
| 2025-09-09 11:13 | -34.48914 | 126.80758 | 36337 ft | 427 kts | 276° |
| 2025-09-09 11:15 | -34.44919 | 126.52467 | 36342 ft | 426 kts | 276° |
| 2025-09-09 11:17 | -34.40357 | 126.20744 | 36349 ft | 425 kts | 276° |
| 2025-09-09 11:19 | -34.36757 | 125.96124 | 36352 ft | 423 kts | 277° |
| 2025-09-09 11:21 | -34.32603 | 125.68153 | 36360 ft | 422 kts | 277° |
| 2025-09-09 11:22 | -34.28918 | 125.43713 | 36365 ft | 422 kts | 277° |
| 2025-09-09 11:25 | -34.24127 | 125.12440 | 36377 ft | 420 kts | 277° |
| 2025-09-09 11:27 | -34.19807 | 124.84784 | 36382 ft | 419 kts | 277° |
| 2025-09-09 11:29 | -34.15420 | 124.57199 | 36388 ft | 418 kts | 278° |
| 2025-09-09 11:31 | -34.10982 | 124.29696 | 36393 ft | 418 kts | 278° |
| 2025-09-09 11:33 | -34.06481 | 124.02214 | 36397 ft | 418 kts | 278° |